Time;durP1;ratioP1;P1;durP2;ratioP2;P2;SDS_P1;SDS_P2;PMS_P1;PMS_P2;Temp;Humidity;BMP_temperature;BMP_pressure;BME280_temperature;BME280_humidity;BME280_pressure;Samples;Min_cycle;Max_cycle;Signal;HPM_P1;HPM_P2
2022/07/08 00:00:22;;;;;;;4.10;1.73;;;23.60;59.50;;;;;;5111780;28;20539;-73
2022/07/08 00:02:50;;;;;;;3.00;2.00;;;23.60;59.60;;;;;;5112980;28;21023;-73
2022/07/08 00:05:16;;;;;;;3.13;1.90;;;23.60;59.90;;;;;;5111610;28;20388;-73
2022/07/08 00:07:43;;;;;;;2.53;1.80;;;23.60;60.00;;;;;;5111779;28;20550;-74
2022/07/08 00:10:10;;;;;;;2.58;1.80;;;23.60;60.10;;;;;;5112559;28;20392;-73
2022/07/08 00:12:37;;;;;;;2.63;1.98;;;23.70;60.00;;;;;;5111936;28;20534;-74
2022/07/08 00:15:05;;;;;;;2.50;1.63;;;23.60;59.90;;;;;;5111758;28;20387;-75
2022/07/08 00:17:31;;;;;;;4.18;2.00;;;23.60;59.90;;;;;;5113832;28;20428;-74
2022/07/08 00:19:57;;;;;;;2.13;1.80;;;23.60;59.90;;;;;;5112314;28;20400;-73
2022/07/08 00:22:26;;;;;;;1.90;1.70;;;23.60;59.80;;;;;;5112377;28;20400;-73
2022/07/08 00:24:55;;;;;;;3.47;1.83;;;23.60;59.80;;;;;;5111842;28;20380;-74
2022/07/08 00:27:22;;;;;;;1.88;1.67;;;23.60;59.80;;;;;;5111493;28;20403;-67
2022/07/08 00:29:51;;;;;;;2.10;1.70;;;23.60;59.80;;;;;;5111743;28;20391;-72
2022/07/08 00:32:18;;;;;;;1.83;1.63;;;23.60;59.80;;;;;;5093011;28;20397;-73
2022/07/08 00:34:44;;;;;;;1.75;1.60;;;23.60;59.80;;;;;;5109964;28;20921;-72
2022/07/08 00:37:10;;;;;;;2.63;1.83;;;23.60;59.80;;;;;;5111400;28;20420;-74
2022/07/08 00:39:37;;;;;;;1.95;1.73;;;23.60;59.80;;;;;;5110580;28;20504;-73
2022/07/08 00:42:04;;;;;;;2.75;1.80;;;23.60;59.80;;;;;;5111712;28;20392;-72
2022/07/08 00:44:31;;;;;;;2.15;1.88;;;23.60;59.80;;;;;;5109923;28;20750;-69
2022/07/08 00:46:57;;;;;;;2.58;1.90;;;23.60;59.80;;;;;;5109780;28;20781;-73
2022/07/08 00:49:23;;;;;;;2.67;1.70;;;23.60;59.80;;;;;;5111794;28;20392;-72
2022/07/08 00:51:49;;;;;;;2.30;1.80;;;23.60;59.80;;;;;;5111135;28;20439;-71
2022/07/08 00:54:22;;;;;;;2.23;1.70;;;23.60;59.80;;;;;;5111569;28;20442;-73
2022/07/08 00:56:49;;;;;;;2.35;1.67;;;23.60;59.80;;;;;;5110052;28;20396;-74
2022/07/08 00:59:17;;;;;;;1.70;1.60;;;23.60;59.80;;;;;;5110285;28;20392;-70
2022/07/08 01:01:43;;;;;;;2.40;1.95;;;23.60;59.80;;;;;;5111055;28;20412;-67
2022/07/08 01:04:09;;;;;;;2.05;1.85;;;23.60;59.90;;;;;;5110556;28;20380;-67
2022/07/08 01:06:35;;;;;;;2.35;1.75;;;23.60;59.90;;;;;;5111072;28;20408;-69
2022/07/08 01:09:01;;;;;;;1.88;1.52;;;23.60;59.90;;;;;;5110820;27;20377;-74
2022/07/08 01:11:27;;;;;;;2.10;1.70;;;23.60;60.00;;;;;;5109902;28;20396;-67
2022/07/08 01:13:54;;;;;;;2.00;1.80;;;23.60;59.90;;;;;;5110571;28;20384;-73
2022/07/08 01:16:20;;;;;;;2.03;1.70;;;23.60;59.90;;;;;;5110657;27;20391;-67
2022/07/08 01:18:46;;;;;;;2.17;1.98;;;23.60;60.00;;;;;;5110405;28;20388;-73
2022/07/08 01:21:12;;;;;;;2.20;2.00;;;23.60;59.90;;;;;;5092145;28;20416;-68
2022/07/08 01:23:38;;;;;;;2.58;1.88;;;23.50;59.90;;;;;;5110402;28;20407;-67
2022/07/08 01:26:11;;;;;;;3.38;1.70;;;23.60;60.00;;;;;;5110646;28;20404;-73
2022/07/08 01:28:39;;;;;;;2.00;1.80;;;23.50;59.90;;;;;;5108821;28;20502;-73
2022/07/08 01:31:06;;;;;;;1.83;1.50;;;23.50;59.90;;;;;;5108685;28;20392;-74
2022/07/08 01:33:33;;;;;;;2.10;1.60;;;23.50;59.90;;;;;;5110145;28;20380;-67
2022/07/08 01:35:59;;;;;;;1.90;1.70;;;23.50;59.90;;;;;;5110721;28;20439;-67
2022/07/08 01:38:27;;;;;;;2.35;1.70;;;23.50;59.90;;;;;;5110215;28;20469;-68
2022/07/08 01:40:53;;;;;;;1.90;1.60;;;23.50;59.80;;;;;;5110258;28;20416;-74
2022/07/08 01:43:22;;;;;;;2.05;1.65;;;23.50;59.90;;;;;;5109761;28;20824;-67
2022/07/08 01:45:51;;;;;;;1.98;1.70;;;23.50;59.90;;;;;;5109850;28;20907;-67
2022/07/08 01:48:17;;;;;;;2.95;1.60;;;23.50;59.90;;;;;;5108555;28;20472;-67
2022/07/08 01:50:44;;;;;;;2.20;1.50;;;23.50;59.90;;;;;;5109708;28;20393;-73
2022/07/08 01:53:11;;;;;;;2.08;1.50;;;23.50;60.00;;;;;;5108407;28;20388;-73
2022/07/08 01:55:37;;;;;;;2.70;1.50;;;23.50;60.00;;;;;;5108599;28;20507;-73
2022/07/08 01:58:03;;;;;;;1.73;1.63;;;23.50;60.00;;;;;;5108272;28;20525;-67
2022/07/08 02:00:30;;;;;;;2.67;1.70;;;23.50;59.90;;;;;;5109725;28;20400;-68
2022/07/08 02:02:55;;;;;;;1.90;1.77;;;23.50;59.90;;;;;;5108806;28;20389;-70
2022/07/08 02:05:22;;;;;;;2.50;1.50;;;23.50;60.00;;;;;;5109089;28;20381;-73
2022/07/08 02:07:49;;;;;;;1.70;1.60;;;23.50;60.00;;;;;;5108553;28;20423;-73
2022/07/08 02:10:16;;;;;;;2.03;1.80;;;23.50;60.10;;;;;;5108178;28;20384;-73
2022/07/08 02:12:43;;;;;;;1.98;1.77;;;23.50;60.20;;;;;;5108955;28;20392;-67
2022/07/08 02:15:09;;;;;;;2.00;1.70;;;23.50;60.10;;;;;;5108973;28;20874;-72
2022/07/08 02:17:39;;;;;;;2.00;1.50;;;23.50;60.10;;;;;;5109604;28;20754;-67
2022/07/08 02:20:10;;;;;;;2.03;1.50;;;23.50;60.20;;;;;;5109226;28;20444;-68
2022/07/08 02:22:38;;;;;;;1.77;1.50;;;23.50;60.00;;;;;;5107701;28;20388;-67
2022/07/08 02:25:05;;;;;;;2.17;1.60;;;23.50;60.20;;;;;;5108989;28;20393;-74
2022/07/08 02:27:32;;;;;;;1.85;1.65;;;23.50;60.10;;;;;;5110024;28;20771;-73
2022/07/08 02:29:58;;;;;;;2.03;1.83;;;23.50;60.20;;;;;;5109009;28;20892;-69
2022/07/08 02:32:24;;;;;;;2.35;2.05;;;23.50;60.10;;;;;;5109419;28;20429;-67
2022/07/08 02:34:51;;;;;;;3.75;1.75;;;23.50;60.10;;;;;;5109687;28;20388;-74
2022/07/08 02:37:18;;;;;;;2.47;1.83;;;23.50;60.10;;;;;;5107154;28;20548;-67
2022/07/08 02:39:44;;;;;;;2.05;1.77;;;23.50;60.20;;;;;;5107745;28;20399;-72
2022/07/08 02:42:10;;;;;;;1.67;1.58;;;23.50;60.10;;;;;;5109045;28;20392;-67
2022/07/08 02:44:39;;;;;;;1.85;1.58;;;23.40;60.00;;;;;;5108798;28;21203;-68
2022/07/08 02:47:10;;;;;;;1.70;1.60;;;23.50;60.10;;;;;;5108258;28;20417;-69
2022/07/08 02:49:37;;;;;;;2.73;1.80;;;23.50;60.10;;;;;;5107570;28;20622;-67
2022/07/08 02:52:04;;;;;;;1.80;1.70;;;23.50;60.20;;;;;;5108719;28;20433;-67
2022/07/08 02:54:30;;;;;;;1.98;1.70;;;23.50;60.20;;;;;;5108671;28;20389;-67
2022/07/08 02:56:59;;;;;;;1.90;1.80;;;23.50;60.20;;;;;;5107010;28;20411;-74
2022/07/08 02:59:25;;;;;;;2.20;1.70;;;23.40;60.20;;;;;;5107113;28;20388;-67
2022/07/08 03:01:51;;;;;;;2.33;1.60;;;23.50;60.30;;;;;;5107439;28;20413;-69
2022/07/08 03:04:17;;;;;;;1.80;1.67;;;23.50;60.40;;;;;;5090346;28;20951;-67
2022/07/08 03:06:44;;;;;;;4.03;1.90;;;23.40;60.20;;;;;;5106794;28;20491;-72
2022/07/08 03:09:11;;;;;;;2.80;1.70;;;23.40;60.30;;;;;;5108279;28;20526;-72
2022/07/08 03:11:39;;;;;;;1.95;1.70;;;23.50;60.70;;;;;;5107562;28;20388;-70
2022/07/08 03:14:06;;;;;;;3.50;2.00;;;23.50;60.70;;;;;;5089879;28;20503;-72
2022/07/08 03:16:32;;;;;;;2.45;2.00;;;23.60;61.70;;;;;;5108623;28;20403;-72
2022/07/08 03:18:58;;;;;;;4.28;1.80;;;23.60;63.10;;;;;;5107050;28;20495;-67
2022/07/08 03:21:25;;;;;;;5.60;1.90;;;23.60;62.10;;;;;;5107763;28;20445;-72
2022/07/08 03:23:51;;;;;;;5.03;1.73;;;23.70;62.50;;;;;;5111496;28;20391;-72
2022/07/08 03:26:17;;;;;;;8.23;2.05;;;23.70;62.50;;;;;;5110696;28;20408;-68
2022/07/08 03:28:43;;;;;;;5.35;1.80;;;23.80;62.30;;;;;;5112018;28;20778;-68
2022/07/08 03:31:13;;;;;;;3.97;1.80;;;23.80;62.10;;;;;;5111840;28;20418;-71
2022/07/08 03:33:39;;;;;;;4.18;1.85;;;23.80;62.20;;;;;;5112137;28;20479;-67
2022/07/08 03:36:07;;;;;;;4.50;1.75;;;23.90;62.10;;;;;;5093913;28;20400;-67
2022/07/08 03:38:35;;;;;;;7.05;1.77;;;23.90;62.10;;;;;;5111991;28;20384;-69
2022/07/08 03:41:20;;;;;;;6.50;1.77;;;23.90;62.00;;;;;;5110266;28;20560;-68
2022/07/08 03:43:52;;;;;;;5.97;2.03;;;23.90;61.40;;;;;;5111959;28;20737;-71
2022/07/08 03:46:19;;;;;;;3.42;1.70;;;23.90;62.10;;;;;;5112101;28;20780;-71
2022/07/08 03:48:45;;;;;;;4.75;1.63;;;23.90;62.00;;;;;;5111140;28;21198;-70
2022/07/08 03:51:16;;;;;;;6.10;1.80;;;23.90;61.90;;;;;;5111817;28;20478;-72
2022/07/08 03:53:44;;;;;;;5.10;1.80;;;23.90;62.00;;;;;;5112018;28;20416;-72
2022/07/08 03:56:10;;;;;;;7.78;1.80;;;23.90;61.70;;;;;;5093392;28;20496;-70
2022/07/08 03:58:38;;;;;;;7.18;1.80;;;24.00;61.70;;;;;;5111610;28;20463;-71
2022/07/08 04:01:05;;;;;;;5.10;1.92;;;23.90;61.60;;;;;;5093300;28;20416;-66
2022/07/08 04:03:31;;;;;;;7.25;1.98;;;23.90;61.90;;;;;;5111524;28;20478;-70
2022/07/08 04:05:57;;;;;;;10.20;2.10;;;23.90;62.00;;;;;;5111359;28;20467;-72
2022/07/08 04:08:23;;;;;;;7.88;2.10;;;23.80;62.00;;;;;;5112260;28;20822;-73
2022/07/08 04:10:49;;;;;;;9.82;2.20;;;23.80;62.00;;;;;;5111834;28;20402;-73
2022/07/08 04:13:14;;;;;;;5.53;1.87;;;23.80;61.80;;;;;;5111332;28;20554;-69
2022/07/08 04:15:40;;;;;;;7.20;1.70;;;23.80;61.90;;;;;;5111930;28;21133;-73
2022/07/08 04:18:08;;;;;;;4.30;1.90;;;23.80;61.90;;;;;;5111536;28;20844;-71
2022/07/08 04:20:36;;;;;;;5.38;2.00;;;23.80;61.50;;;;;;5111638;28;20431;-72
2022/07/08 04:23:01;;;;;;;7.22;2.00;;;23.70;61.20;;;;;;5111275;28;20418;-67
2022/07/08 04:25:29;;;;;;;6.40;1.95;;;23.70;61.10;;;;;;5111150;28;20393;-68
2022/07/08 04:27:56;;;;;;;6.07;2.05;;;23.70;61.00;;;;;;5110067;28;20422;-67
2022/07/08 04:30:22;;;;;;;5.57;1.98;;;23.70;61.00;;;;;;5110029;28;21010;-70
2022/07/08 04:32:47;;;;;;;6.55;2.40;;;23.70;60.90;;;;;;5089527;28;20427;-69
2022/07/08 04:35:13;;;;;;;5.78;2.22;;;23.70;60.80;;;;;;5093022;28;20391;-71
2022/07/08 04:37:39;;;;;;;8.53;2.40;;;23.70;60.70;;;;;;5094027;28;20452;-70
2022/07/08 04:40:05;;;;;;;6.73;2.47;;;23.70;60.70;;;;;;5100638;28;20392;-70
2022/07/08 04:42:30;;;;;;;4.70;2.10;;;23.60;60.60;;;;;;5114854;28;20377;-67
2022/07/08 04:44:56;;;;;;;6.32;2.33;;;23.60;60.60;;;;;;5113639;28;20381;-72
2022/07/08 04:47:22;;;;;;;6.60;2.20;;;23.60;60.70;;;;;;5112539;28;20393;-71
2022/07/08 04:49:47;;;;;;;7.13;2.50;;;23.60;60.70;;;;;;5114288;28;20416;-72
2022/07/08 04:52:13;;;;;;;12.27;2.47;;;23.60;60.70;;;;;;5114973;28;20380;-68
2022/07/08 04:54:38;;;;;;;7.47;2.47;;;23.60;60.70;;;;;;5112245;27;20438;-67
2022/07/08 04:57:05;;;;;;;9.15;2.33;;;23.60;60.60;;;;;;5113063;28;20403;-70
2022/07/08 04:59:31;;;;;;;8.45;2.50;;;23.60;60.30;;;;;;5112519;28;20397;-71
2022/07/08 05:01:57;;;;;;;7.85;2.22;;;23.60;60.20;;;;;;5114087;28;20958;-71
2022/07/08 05:04:22;;;;;;;7.30;2.00;;;23.60;59.90;;;;;;5113186;28;20472;-66
2022/07/08 05:06:48;;;;;;;6.50;2.30;;;23.60;59.60;;;;;;5113702;27;20396;-67
2022/07/08 05:09:13;;;;;;;6.85;2.05;;;23.50;59.40;;;;;;5116926;27;20407;-67
2022/07/08 05:11:39;;;;;;;5.57;2.30;;;23.50;59.30;;;;;;5113213;28;20389;-67
2022/07/08 05:14:05;;;;;;;5.47;2.30;;;23.50;59.40;;;;;;5113600;28;20364;-67
2022/07/08 05:16:31;;;;;;;8.73;2.53;;;23.50;59.50;;;;;;5113189;28;20933;-67
2022/07/08 05:18:57;;;;;;;7.05;2.38;;;23.50;59.90;;;;;;5112099;28;20415;-71
2022/07/08 05:21:22;;;;;;;4.20;2.20;;;23.50;59.60;;;;;;5113134;28;21102;-71
2022/07/08 05:23:48;;;;;;;6.40;2.28;;;23.50;59.60;;;;;;5113139;28;20467;-71
2022/07/08 05:26:14;;;;;;;7.50;2.60;;;23.50;60.20;;;;;;5113487;28;20392;-71
2022/07/08 05:28:39;;;;;;;6.53;2.42;;;23.50;61.50;;;;;;5113075;28;20376;-73
2022/07/08 05:31:05;;;;;;;7.17;2.30;;;23.50;60.90;;;;;;5112817;28;20475;-68
2022/07/08 05:33:30;;;;;;;4.37;2.03;;;23.50;60.30;;;;;;5112612;28;20449;-67
2022/07/08 05:35:56;;;;;;;6.55;2.10;;;23.50;60.40;;;;;;5111691;28;20392;-67
2022/07/08 05:38:22;;;;;;;5.20;2.27;;;23.50;60.50;;;;;;5111771;28;20445;-68
2022/07/08 05:40:47;;;;;;;5.22;2.05;;;23.50;60.20;;;;;;5112787;28;20420;-68
2022/07/08 05:43:13;;;;;;;6.97;2.20;;;23.50;60.60;;;;;;5111518;28;20479;-71
2022/07/08 05:45:39;;;;;;;5.37;2.10;;;23.50;60.00;;;;;;5103172;28;20903;-67
2022/07/08 05:48:05;;;;;;;6.65;2.17;;;23.50;60.00;;;;;;5109211;27;20410;-72
2022/07/08 05:50:30;;;;;;;5.43;1.83;;;23.50;59.60;;;;;;5110121;27;20411;-71
2022/07/08 05:52:57;;;;;;;6.83;2.17;;;23.50;59.90;;;;;;5109160;28;20492;-71
2022/07/08 05:55:24;;;;;;;5.10;2.30;;;23.50;60.00;;;;;;5108527;28;20404;-69
2022/07/08 05:57:50;;;;;;;3.85;1.80;;;23.50;60.00;;;;;;5109321;27;20391;-71
2022/07/08 06:00:16;;;;;;;4.18;2.00;;;23.50;59.90;;;;;;5120434;27;20406;-72
2022/07/08 06:02:42;;;;;;;3.72;1.90;;;23.50;59.90;;;;;;5118544;27;20443;-67
2022/07/08 06:05:08;;;;;;;4.30;2.00;;;23.50;59.80;;;;;;5116811;27;20379;-66
2022/07/08 06:07:34;;;;;;;3.88;2.05;;;23.50;59.80;;;;;;5114442;27;20442;-68
2022/07/08 06:10:04;;;;;;;4.80;1.80;;;23.50;60.70;;;;;;5109213;28;20384;-68
2022/07/08 06:12:31;;;;;;;4.47;1.85;;;23.50;59.90;;;;;;5108495;28;20385;-67
2022/07/08 06:14:58;;;;;;;3.80;1.92;;;23.50;59.90;;;;;;5107973;28;20400;-70
2022/07/08 06:17:24;;;;;;;4.65;1.85;;;23.50;59.80;;;;;;5108881;28;20399;-67
2022/07/08 06:19:50;;;;;;;4.75;2.00;;;23.50;59.80;;;;;;5109277;28;20384;-67
2022/07/08 06:22:19;;;;;;;2.92;1.90;;;23.50;59.90;;;;;;5109019;28;20935;-66
2022/07/08 06:24:44;;;;;;;3.83;1.90;;;23.50;59.80;;;;;;5090666;28;20397;-67
2022/07/08 06:27:11;;;;;;;3.67;1.90;;;23.50;59.70;;;;;;5108885;28;20746;-66
2022/07/08 06:29:37;;;;;;;3.33;1.70;;;23.50;59.70;;;;;;5108926;28;20469;-67
2022/07/08 06:32:06;;;;;;;3.45;1.80;;;23.50;59.80;;;;;;5108851;28;20388;-68
2022/07/08 06:34:33;;;;;;;4.00;1.90;;;23.50;59.70;;;;;;5109026;28;20388;-67
2022/07/08 06:37:00;;;;;;;4.78;1.83;;;23.50;59.70;;;;;;5108906;28;20411;-67
2022/07/08 06:39:26;;;;;;;3.05;1.80;;;23.50;59.60;;;;;;5106853;28;20393;-67
2022/07/08 06:41:52;;;;;;;3.42;1.70;;;23.50;59.60;;;;;;5108562;28;20923;-69
2022/07/08 06:44:20;;;;;;;2.78;1.92;;;23.50;59.50;;;;;;5108960;28;20380;-67
2022/07/08 06:46:48;;;;;;;3.90;2.00;;;23.40;59.50;;;;;;5109223;28;20754;-67
2022/07/08 06:49:14;;;;;;;3.38;2.00;;;23.50;59.50;;;;;;5108577;28;20385;-70
2022/07/08 06:51:40;;;;;;;2.67;2.10;;;23.50;59.50;;;;;;5108828;28;20825;-68
2022/07/08 06:56:51;;;;;;;2.97;1.90;;;23.50;59.40;;;;;;5109152;28;20895;-71
2022/07/08 06:59:17;;;;;;;2.63;1.90;;;23.40;59.30;;;;;;5089268;28;20434;-66
2022/07/08 07:01:42;;;;;;;3.00;1.90;;;23.40;59.50;;;;;;5106945;28;20416;-68
2022/07/08 07:04:09;;;;;;;2.95;1.75;;;23.40;59.20;;;;;;5108172;28;20723;-70
2022/07/08 07:06:35;;;;;;;3.08;1.80;;;23.40;59.20;;;;;;5108424;28;20418;-73
2022/07/08 07:09:01;;;;;;;3.22;1.73;;;23.50;59.20;;;;;;5108294;28;20411;-66
2022/07/08 07:11:26;;;;;;;3.38;1.98;;;23.40;59.20;;;;;;5107055;28;21125;-66
2022/07/08 07:13:52;;;;;;;2.28;1.40;;;23.40;59.20;;;;;;5107054;28;20950;-67
2022/07/08 07:16:17;;;;;;;3.10;1.80;;;23.50;59.10;;;;;;5108112;28;20754;-65
2022/07/08 07:18:43;;;;;;;3.63;3.13;;;23.40;59.10;;;;;;5107696;28;20866;-71
2022/07/08 07:21:09;;;;;;;2.90;2.53;;;23.40;58.90;;;;;;5114607;28;20411;-68
2022/07/08 07:23:35;;;;;;;7.47;5.20;;;23.40;59.10;;;;;;5125218;28;20387;-69
2022/07/08 07:26:01;;;;;;;6.17;4.80;;;23.40;59.10;;;;;;5128986;28;20536;-68
2022/07/08 07:28:26;;;;;;;6.85;5.55;;;23.40;59.00;;;;;;5128903;28;20391;-69
2022/07/08 07:30:52;;;;;;;6.43;5.07;;;23.40;59.00;;;;;;5111309;28;20388;-67
2022/07/08 07:33:18;;;;;;;7.05;5.93;;;23.40;59.00;;;;;;5108670;28;20403;-72
2022/07/08 07:35:43;;;;;;;10.27;7.40;;;23.40;59.00;;;;;;5109956;28;20471;-68
2022/07/08 07:38:09;;;;;;;16.08;11.00;;;23.40;58.90;;;;;;5110361;28;20380;-68
2022/07/08 07:40:35;;;;;;;15.57;11.15;;;23.40;58.90;;;;;;5111446;28;20420;-71
2022/07/08 07:43:00;;;;;;;17.15;12.20;;;23.40;58.80;;;;;;5111365;28;20380;-72
2022/07/08 07:45:26;;;;;;;16.92;11.85;;;23.40;58.90;;;;;;5110791;28;20392;-68
2022/07/08 07:47:52;;;;;;;18.77;12.53;;;23.40;59.00;;;;;;5111167;28;20455;-71
2022/07/08 07:50:17;;;;;;;18.17;12.65;;;23.40;58.90;;;;;;5104461;28;20423;-71
2022/07/08 07:52:43;;;;;;;17.13;11.80;;;23.40;58.90;;;;;;5108058;28;20395;-69
2022/07/08 07:55:09;;;;;;;15.93;11.23;;;23.40;58.90;;;;;;5111217;28;20468;-67
2022/07/08 07:57:36;;;;;;;16.20;11.38;;;23.40;58.90;;;;;;5110595;28;20380;-67
2022/07/08 08:00:04;;;;;;;16.55;11.00;;;23.40;58.80;;;;;;5111006;28;20454;-67
2022/07/08 08:02:29;;;;;;;15.23;10.75;;;23.40;58.80;;;;;;5111076;28;20510;-71
2022/07/08 08:04:55;;;;;;;14.87;10.70;;;23.40;58.80;;;;;;5110901;28;20933;-72
2022/07/08 08:07:21;;;;;;;14.98;10.27;;;23.40;58.70;;;;;;5092301;28;20488;-67
2022/07/08 08:09:46;;;;;;;14.10;10.32;;;23.40;58.60;;;;;;5111786;28;20396;-67
2022/07/08 08:12:12;;;;;;;13.70;10.03;;;23.40;58.60;;;;;;5113487;28;20392;-68
2022/07/08 08:14:37;;;;;;;13.20;9.68;;;23.40;58.60;;;;;;5113616;28;20521;-68
2022/07/08 08:17:03;;;;;;;14.05;9.85;;;23.40;58.60;;;;;;5113427;28;20448;-67
2022/07/08 08:19:31;;;;;;;13.55;9.50;;;23.40;58.60;;;;;;5114357;28;20372;-67
2022/07/08 08:21:56;;;;;;;12.57;9.10;;;23.40;58.60;;;;;;5114539;28;20773;-68
2022/07/08 08:24:22;;;;;;;13.27;9.43;;;23.40;58.50;;;;;;5114521;28;20383;-71
2022/07/08 08:26:48;;;;;;;12.57;8.80;;;23.40;59.10;;;;;;5114574;28;20388;-69
2022/07/08 08:29:13;;;;;;;11.80;8.53;;;23.40;58.60;;;;;;5114550;28;20588;-70
2022/07/08 08:31:39;;;;;;;12.18;8.90;;;23.40;58.60;;;;;;5113819;28;20893;-71
2022/07/08 08:34:05;;;;;;;12.50;8.87;;;23.40;59.20;;;;;;5114240;28;20817;-71
2022/07/08 08:36:30;;;;;;;11.93;8.88;;;23.40;58.60;;;;;;5112904;28;20428;-68
2022/07/08 08:38:56;;;;;;;12.43;8.60;;;23.40;58.50;;;;;;5112685;28;20381;-68
2022/07/08 08:41:23;;;;;;;11.67;8.57;;;23.40;58.50;;;;;;5113784;28;20408;-70
2022/07/08 08:43:48;;;;;;;12.70;8.50;;;23.40;58.50;;;;;;5114083;28;20373;-71
2022/07/08 08:46:22;;;;;;;13.10;8.70;;;23.40;58.50;;;;;;5113989;28;20985;-68
2022/07/08 08:48:48;;;;;;;10.75;7.82;;;23.30;58.50;;;;;;5113732;28;20391;-75
2022/07/08 08:51:20;;;;;;;12.10;7.80;;;23.30;58.30;;;;;;5113981;28;20854;-68
2022/07/08 08:53:47;;;;;;;12.07;8.05;;;23.30;58.30;;;;;;5113747;28;20384;-70
2022/07/08 08:56:14;;;;;;;11.43;8.07;;;23.30;58.90;;;;;;5112411;28;20858;-73
2022/07/08 08:58:41;;;;;;;11.68;8.13;;;23.30;59.20;;;;;;5114362;28;20402;-73
2022/07/08 09:01:08;;;;;;;11.93;8.50;;;23.30;59.20;;;;;;5113322;28;20417;-67
2022/07/08 09:03:37;;;;;;;12.25;8.88;;;23.30;59.40;;;;;;5113148;28;20384;-71
2022/07/08 09:06:04;;;;;;;11.68;8.10;;;23.30;59.30;;;;;;5113534;28;20526;-71
2022/07/08 09:08:29;;;;;;;10.75;7.95;;;23.30;59.10;;;;;;5113447;28;20392;-72
2022/07/08 09:10:55;;;;;;;11.32;7.68;;;23.30;59.10;;;;;;5113321;28;20441;-67
2022/07/08 09:13:25;;;;;;;11.67;7.67;;;23.30;59.10;;;;;;5111848;28;20472;-72
2022/07/08 09:15:54;;;;;;;11.98;7.30;;;23.30;59.10;;;;;;5113308;28;20385;-72
2022/07/08 09:18:25;;;;;;;11.40;7.40;;;23.30;59.20;;;;;;5113332;28;20442;-72
2022/07/08 09:20:53;;;;;;;10.55;7.15;;;23.30;59.10;;;;;;5113083;28;20419;-72
2022/07/08 09:23:36;;;;;;;10.30;7.15;;;23.40;59.10;;;;;;5113193;28;20377;-71
2022/07/08 09:26:04;;;;;;;10.77;7.43;;;23.30;59.10;;;;;;5113390;28;20479;-72
2022/07/08 09:28:35;;;;;;;9.30;6.78;;;23.30;59.10;;;;;;5113051;28;20395;-68
2022/07/08 09:31:04;;;;;;;9.95;6.80;;;23.40;59.20;;;;;;5112888;28;20392;-70
2022/07/08 09:33:30;;;;;;;9.73;6.77;;;23.40;59.00;;;;;;5112813;28;20447;-70
2022/07/08 09:36:00;;;;;;;10.00;6.82;;;23.30;59.00;;;;;;5112844;28;20388;-73
2022/07/08 09:38:27;;;;;;;9.17;6.50;;;23.30;59.00;;;;;;5113033;27;20381;-71
2022/07/08 09:41:03;;;;;;;8.15;6.43;;;23.30;59.00;;;;;;5112938;28;20423;-70
2022/07/08 09:43:30;;;;;;;9.15;6.38;;;23.30;58.90;;;;;;5111290;28;20883;-73
2022/07/08 09:46:04;;;;;;;8.95;6.47;;;23.30;58.80;;;;;;5113051;28;20411;-68
2022/07/08 09:48:29;;;;;;;9.13;6.30;;;23.30;58.80;;;;;;5112958;28;20395;-69
2022/07/08 09:50:55;;;;;;;8.90;6.07;;;23.30;59.30;;;;;;5113140;28;20467;-72
2022/07/08 09:53:28;;;;;;;8.30;6.03;;;23.40;58.80;;;;;;5111279;28;20408;-70
2022/07/08 09:55:56;;;;;;;8.65;6.00;;;23.30;58.70;;;;;;5112665;28;20445;-72
2022/07/08 09:58:24;;;;;;;10.50;7.55;;;23.40;58.70;;;;;;5112733;28;20765;-70
2022/07/08 10:00:52;;;;;;;12.25;8.80;;;23.40;58.70;;;;;;5112467;28;20408;-66
2022/07/08 10:03:19;;;;;;;9.33;6.93;;;23.30;58.60;;;;;;5112725;28;20490;-73
2022/07/08 10:05:46;;;;;;;16.60;11.90;;;23.40;58.70;;;;;;5112434;28;20800;-74
2022/07/08 10:08:12;;;;;;;17.33;12.00;;;23.40;58.70;;;;;;5112190;28;20483;-68
2022/07/08 10:10:39;;;;;;;19.67;14.32;;;23.40;58.70;;;;;;5112622;28;20381;-73
2022/07/08 10:13:06;;;;;;;15.75;11.50;;;23.40;58.40;;;;;;5112323;28;20392;-72
2022/07/08 10:15:33;;;;;;;18.02;13.07;;;23.40;58.50;;;;;;5112783;28;20885;-72
2022/07/08 10:18:10;;;;;;;17.30;12.38;;;23.40;58.30;;;;;;5112326;28;20395;-71
2022/07/08 10:20:39;;;;;;;16.90;12.05;;;23.40;58.30;;;;;;5112054;28;20418;-74
2022/07/08 10:23:09;;;;;;;17.25;12.10;;;23.40;58.30;;;;;;5112102;28;20392;-71
2022/07/08 10:25:35;;;;;;;17.67;12.57;;;23.40;58.30;;;;;;5111811;28;20902;-71
2022/07/08 10:28:08;;;;;;;17.27;12.50;;;23.40;58.20;;;;;;5112198;28;20425;-72
2022/07/08 10:31:18;;;;;;;17.60;12.80;;;23.40;58.20;;;;;;5110311;28;21052;-70
2022/07/08 10:33:47;;;;;;;18.27;13.03;;;23.40;58.20;;;;;;5114339;27;20464;-70
2022/07/08 10:36:12;;;;;;;20.23;13.63;;;23.40;58.30;;;;;;5120495;27;20378;-72
2022/07/08 10:38:40;;;;;;;17.92;13.20;;;23.40;58.30;;;;;;5110675;27;20904;-67
2022/07/08 10:41:17;;;;;;;17.63;12.85;;;23.40;58.20;;;;;;5114664;27;20430;-68
2022/07/08 10:43:58;;;;;;;17.77;12.70;;;23.40;58.50;;;;;;5129476;27;20874;-73
2022/07/08 10:46:25;;;;;;;19.23;13.48;;;23.40;58.00;;;;;;5115486;27;20399;-72
2022/07/08 10:48:55;;;;;;;17.83;12.40;;;23.40;58.30;;;;;;5110520;28;20389;-72
2022/07/08 10:51:24;;;;;;;18.48;12.52;;;23.40;58.30;;;;;;5109119;28;20399;-70
2022/07/08 10:54:05;;;;;;;17.10;11.45;;;23.40;58.20;;;;;;5111289;28;20388;-73
2022/07/08 10:56:54;;;;;;;17.65;12.32;;;23.40;58.30;;;;;;5110835;28;20400;-73
2022/07/08 10:59:32;;;;;;;18.30;12.02;;;23.40;58.00;;;;;;5109635;28;20926;-73
2022/07/08 11:02:17;;;;;;;16.15;9.73;;;23.40;58.10;;;;;;5110158;28;20507;-73
2022/07/08 11:04:45;;;;;;;13.45;9.32;;;23.40;58.00;;;;;;5111172;28;20483;-73
2022/07/08 11:07:14;;;;;;;13.80;8.82;;;23.40;57.70;;;;;;5111208;28;20392;-72
2022/07/08 11:09:40;;;;;;;13.88;7.97;;;23.40;57.80;;;;;;5110440;28;20423;-73
2022/07/08 11:12:17;;;;;;;10.60;6.43;;;23.40;57.20;;;;;;5111337;28;20391;-70
2022/07/08 11:14:44;;;;;;;14.43;6.82;;;23.40;55.10;;;;;;5111468;28;20857;-74
2022/07/08 11:17:31;;;;;;;12.55;6.15;;;23.40;57.50;;;;;;5111353;28;20392;-73
2022/07/08 11:19:58;;;;;;;14.00;6.15;;;23.40;55.40;;;;;;5111348;28;20380;-71
2022/07/08 11:22:25;;;;;;;16.40;5.93;;;23.40;58.00;;;;;;5111381;28;20393;-74
2022/07/08 11:24:52;;;;;;;12.23;4.75;;;23.40;57.50;;;;;;5111136;28;20377;-73
2022/07/08 11:27:26;;;;;;;12.38;4.47;;;23.50;56.90;;;;;;5111919;28;20497;-72
2022/07/08 11:29:53;;;;;;;13.98;4.35;;;23.50;56.20;;;;;;5126355;28;20407;-70
2022/07/08 11:32:20;;;;;;;9.30;3.70;;;23.50;55.70;;;;;;5130314;22;20489;-69
2022/07/08 11:34:47;;;;;;;9.15;3.63;;;23.60;55.40;;;;;;5045530;22;20489;-72
2022/07/08 11:37:13;;;;;;;10.35;3.40;;;23.60;55.10;;;;;;5030602;28;20387;-73
2022/07/08 11:39:39;;;;;;;7.35;3.50;;;23.60;54.70;;;;;;5045798;28;20426;-73
2022/07/08 11:42:05;;;;;;;10.70;3.70;;;23.60;54.80;;;;;;5028503;28;20426;-72
2022/07/08 11:44:31;;;;;;;8.60;3.17;;;23.50;55.10;;;;;;5022703;28;20435;-73
2022/07/08 11:46:57;;;;;;;6.63;3.03;;;23.60;54.80;;;;;;5023276;28;20402;-73
2022/07/08 11:49:26;;;;;;;10.93;3.50;;;23.60;54.50;;;;;;5022673;28;20405;-74
2022/07/08 11:51:53;;;;;;;6.45;2.70;;;23.60;54.40;;;;;;5023767;28;20443;-71
2022/07/08 11:54:23;;;;;;;12.18;3.30;;;23.70;54.20;;;;;;5022919;28;20427;-73
2022/07/08 11:56:55;;;;;;;8.18;3.00;;;23.70;54.30;;;;;;5030289;28;20387;-72
2022/07/08 11:59:22;;;;;;;8.35;3.08;;;23.70;54.10;;;;;;5034672;28;20833;-74
2022/07/08 12:01:50;;;;;;;7.07;2.83;;;23.70;54.60;;;;;;5033578;28;20436;-72
2022/07/08 12:04:16;;;;;;;7.35;2.60;;;23.60;53.90;;;;;;5032685;28;20896;-68
2022/07/08 12:06:49;;;;;;;7.35;2.33;;;23.60;54.60;;;;;;5034274;28;20395;-71
2022/07/08 12:09:20;;;;;;;5.70;2.78;;;23.60;54.50;;;;;;5034288;28;20482;-67
2022/07/08 12:11:48;;;;;;;7.20;2.80;;;23.60;54.80;;;;;;5033858;28;20501;-71
2022/07/08 12:14:14;;;;;;;7.67;2.83;;;23.60;55.00;;;;;;5034156;28;20390;-70
2022/07/08 12:16:48;;;;;;;7.40;3.05;;;23.60;55.20;;;;;;5033393;28;20441;-67
2022/07/08 12:19:35;;;;;;;6.05;2.70;;;23.60;55.20;;;;;;5034130;28;20911;-68
2022/07/08 12:22:05;;;;;;;5.20;2.40;;;23.60;55.20;;;;;;5033401;28;20971;-70
2022/07/08 12:24:39;;;;;;;5.95;2.50;;;23.60;55.30;;;;;;5034056;28;20460;-72
2022/07/08 12:27:06;;;;;;;5.43;2.53;;;23.60;55.40;;;;;;5033777;28;20821;-68
2022/07/08 12:29:33;;;;;;;5.63;2.75;;;23.60;55.40;;;;;;5033733;28;20395;-68
2022/07/08 12:31:59;;;;;;;5.20;2.70;;;23.60;55.40;;;;;;5034932;28;20475;-70
2022/07/08 12:34:25;;;;;;;5.05;2.70;;;23.70;55.40;;;;;;5033723;28;20399;-71
2022/07/08 12:36:52;;;;;;;4.93;2.60;;;23.60;55.60;;;;;;5034050;28;20437;-71
2022/07/08 12:39:22;;;;;;;4.95;2.70;;;23.70;55.60;;;;;;5033059;28;20976;-71
2022/07/08 12:42:05;;;;;;;4.22;2.70;;;23.70;55.70;;;;;;5032781;28;20427;-70
2022/07/08 12:44:31;;;;;;;5.55;2.55;;;23.70;55.70;;;;;;5033341;28;20392;-72
2022/07/08 12:46:57;;;;;;;4.65;2.53;;;23.70;55.70;;;;;;5032746;28;20387;-70